Verstervig, Denmark
Current Conditions -  °F | °C
As of 1:20 PM on Friday 28 Nov 2014 (Local Time) from EKKA Reporting Station
Scattered Clouds Scattered Clouds  
Wind Chill: 34°   Ceiling: Unl
Heat Index: 43°   Visibility: 6mi
Dew Point: 34°   Wind: 21mph
Humidity: 70%   Direction: 100°E
Pressure: 30.18"   Gusts: 33mph
Location:  56.7°N, 8.22°E
Report Text: EKKA 281220Z 10018G29KT 9999 SCT024 06/01 Q1022 NOSIG
Loading
Personal Weather Stations






























Interactive Weather Map New forecast layout! Learn more

10-Day Weather Forecast

Advertisements
Track Severe Weather on mobile